sensor_id;sensor_type;location;lat;lon;timestamp;pressure;altitude;pressure_sealevel;temperature
82774;BMP280;72508;45.118;20.728;2023-09-08T00:07:24;100980.22;;;23.86
82774;BMP280;72508;45.118;20.728;2023-09-08T00:17:25;100984.59;;;23.63
82774;BMP280;72508;45.118;20.728;2023-09-08T00:27:26;100981.16;;;23.58
82774;BMP280;72508;45.118;20.728;2023-09-08T00:37:27;100983.50;;;23.83
82774;BMP280;72508;45.118;20.728;2023-09-08T00:47:28;100992.66;;;23.77
82774;BMP280;72508;45.118;20.728;2023-09-08T00:57:29;100982.56;;;23.74
82774;BMP280;72508;45.118;20.728;2023-09-08T01:07:30;100994.72;;;23.66
82774;BMP280;72508;45.118;20.728;2023-09-08T01:17:31;100994.06;;;23.56
82774;BMP280;72508;45.118;20.728;2023-09-08T01:27:33;100994.19;;;23.45
82774;BMP280;72508;45.118;20.728;2023-09-08T01:37:35;100989.28;;;23.34
82774;BMP280;72508;45.118;20.728;2023-09-08T01:47:37;101000.84;;;23.48
82774;BMP280;72508;45.118;20.728;2023-09-08T01:57:38;101000.56;;;23.49
82774;BMP280;72508;45.118;20.728;2023-09-08T02:07:39;101006.03;;;23.58
82774;BMP280;72508;45.118;20.728;2023-09-08T02:17:40;100998.88;;;23.53
82774;BMP280;72508;45.118;20.728;2023-09-08T02:27:41;101006.97;;;23.48
82774;BMP280;72508;45.118;20.728;2023-09-08T02:37:42;101004.97;;;23.59
82774;BMP280;72508;45.118;20.728;2023-09-08T02:47:43;101005.09;;;23.68
82774;BMP280;72508;45.118;20.728;2023-09-08T02:57:44;101006.16;;;23.72
82774;BMP280;72508;45.118;20.728;2023-09-08T03:07:47;100997.75;;;23.60
82774;BMP280;72508;45.118;20.728;2023-09-08T03:17:48;100999.09;;;23.38
82774;BMP280;72508;45.118;20.728;2023-09-08T03:27:49;100994.97;;;23.27
82774;BMP280;72508;45.118;20.728;2023-09-08T03:37:50;100999.75;;;23.06
82774;BMP280;72508;45.118;20.728;2023-09-08T03:47:51;101009.88;;;22.85
82774;BMP280;72508;45.118;20.728;2023-09-08T03:57:52;101008.38;;;22.74
82774;BMP280;72508;45.118;20.728;2023-09-08T04:07:53;101005.38;;;22.80
82774;BMP280;72508;45.118;20.728;2023-09-08T04:17:54;101013.25;;;22.67
82774;BMP280;72508;45.118;20.728;2023-09-08T04:27:57;101014.94;;;22.58
82774;BMP280;72508;45.118;20.728;2023-09-08T04:37:58;101018.56;;;22.67
82774;BMP280;72508;45.118;20.728;2023-09-08T04:47:59;101004.09;;;22.73
82774;BMP280;72508;45.118;20.728;2023-09-08T04:58:00;101025.78;;;22.95
82774;BMP280;72508;45.118;20.728;2023-09-08T05:08:01;101023.06;;;23.00
82774;BMP280;72508;45.118;20.728;2023-09-08T05:18:04;101026.13;;;23.13
82774;BMP280;72508;45.118;20.728;2023-09-08T05:28:05;101032.81;;;23.34
82774;BMP280;72508;45.118;20.728;2023-09-08T05:38:06;101029.25;;;23.63
82774;BMP280;72508;45.118;20.728;2023-09-08T05:48:07;101027.66;;;23.99
82774;BMP280;72508;45.118;20.728;2023-09-08T05:58:08;101029.16;;;24.38
82774;BMP280;72508;45.118;20.728;2023-09-08T06:08:09;101027.13;;;24.63
82774;BMP280;72508;45.118;20.728;2023-09-08T06:18:15;101033.50;;;25.08
82774;BMP280;72508;45.118;20.728;2023-09-08T06:28:16;101031.47;;;25.41
82774;BMP280;72508;45.118;20.728;2023-09-08T06:38:17;101030.47;;;25.73
82774;BMP280;72508;45.118;20.728;2023-09-08T06:48:18;101039.03;;;25.98
82774;BMP280;72508;45.118;20.728;2023-09-08T06:58:19;101047.09;;;26.29
82774;BMP280;72508;45.118;20.728;2023-09-08T07:08:24;101051.69;;;26.60
82774;BMP280;72508;45.118;20.728;2023-09-08T07:18:26;101055.72;;;26.88
82774;BMP280;72508;45.118;20.728;2023-09-08T07:28:27;101067.06;;;27.25
82774;BMP280;72508;45.118;20.728;2023-09-08T07:38:31;101059.31;;;27.49
82774;BMP280;72508;45.118;20.728;2023-09-08T07:48:32;101057.75;;;27.83
82774;BMP280;72508;45.118;20.728;2023-09-08T07:58:36;101048.31;;;28.07
82774;BMP280;72508;45.118;20.728;2023-09-08T08:08:40;101054.09;;;28.35
82774;BMP280;72508;45.118;20.728;2023-09-08T08:18:41;101054.09;;;28.73
82774;BMP280;72508;45.118;20.728;2023-09-08T08:28:42;101055.31;;;29.26
82774;BMP280;72508;45.118;20.728;2023-09-08T08:38:42;101059.22;;;29.70
82774;BMP280;72508;45.118;20.728;2023-09-08T08:48:44;101064.78;;;29.98
82774;BMP280;72508;45.118;20.728;2023-09-08T08:58:46;101047.25;;;30.29
82774;BMP280;72508;45.118;20.728;2023-09-08T09:08:47;101061.91;;;30.52
82774;BMP280;72508;45.118;20.728;2023-09-08T09:18:59;101050.59;;;30.87
82774;BMP280;72508;45.118;20.728;2023-09-08T09:29:11;101055.53;;;31.25
82774;BMP280;72508;45.118;20.728;2023-09-08T09:39:12;101053.09;;;31.80
82774;BMP280;72508;45.118;20.728;2023-09-08T09:49:14;101053.53;;;32.29
82774;BMP280;72508;45.118;20.728;2023-09-08T09:59:22;101033.81;;;32.67
82774;BMP280;72508;45.118;20.728;2023-09-08T10:09:23;101035.94;;;32.39
82774;BMP280;72508;45.118;20.728;2023-09-08T10:19:24;101033.72;;;32.44
82774;BMP280;72508;45.118;20.728;2023-09-08T10:29:27;101030.53;;;31.44
82774;BMP280;72508;45.118;20.728;2023-09-08T10:39:29;101022.66;;;31.39
82774;BMP280;72508;45.118;20.728;2023-09-08T10:49:36;101009.66;;;32.08
82774;BMP280;72508;45.118;20.728;2023-09-08T10:59:39;100999.91;;;33.88
82774;BMP280;72508;45.118;20.728;2023-09-08T11:09:40;100993.47;;;35.01
82774;BMP280;72508;45.118;20.728;2023-09-08T11:19:49;100996.28;;;34.37
82774;BMP280;72508;45.118;20.728;2023-09-08T11:29:50;100973.25;;;34.98
82774;BMP280;72508;45.118;20.728;2023-09-08T11:39:51;100964.69;;;34.25
82774;BMP280;72508;45.118;20.728;2023-09-08T11:49:53;100957.81;;;35.13
82774;BMP280;72508;45.118;20.728;2023-09-08T11:59:54;100951.31;;;35.28
82774;BMP280;72508;45.118;20.728;2023-09-08T12:09:55;100938.91;;;36.04
82774;BMP280;72508;45.118;20.728;2023-09-08T12:20:14;100931.91;;;36.06
82774;BMP280;72508;45.118;20.728;2023-09-08T12:30:19;100932.53;;;35.74
82774;BMP280;72508;45.118;20.728;2023-09-08T12:40:20;100916.06;;;35.50
82774;BMP280;72508;45.118;20.728;2023-09-08T12:50:22;100900.31;;;35.18
82774;BMP280;72508;45.118;20.728;2023-09-08T13:00:23;100898.28;;;35.70
82774;BMP280;72508;45.118;20.728;2023-09-08T13:10:25;100899.09;;;35.19
82774;BMP280;72508;45.118;20.728;2023-09-08T13:20:26;100885.94;;;34.77
82774;BMP280;72508;45.118;20.728;2023-09-08T13:30:27;100871.78;;;35.67
82774;BMP280;72508;45.118;20.728;2023-09-08T13:40:28;100863.31;;;35.17
82774;BMP280;72508;45.118;20.728;2023-09-08T13:50:29;100867.00;;;35.42
82774;BMP280;72508;45.118;20.728;2023-09-08T14:00:30;100865.34;;;34.76
82774;BMP280;72508;45.118;20.728;2023-09-08T14:10:31;100856.44;;;35.37
82774;BMP280;72508;45.118;20.728;2023-09-08T14:20:32;100851.88;;;34.12
82774;BMP280;72508;45.118;20.728;2023-09-08T14:30:34;100862.75;;;33.52
82774;BMP280;72508;45.118;20.728;2023-09-08T14:40:36;100862.72;;;33.78
82774;BMP280;72508;45.118;20.728;2023-09-08T14:50:37;100857.06;;;34.24
82774;BMP280;72508;45.118;20.728;2023-09-08T15:00:38;100850.28;;;34.07
82774;BMP280;72508;45.118;20.728;2023-09-08T15:10:39;100856.50;;;33.48
82774;BMP280;72508;45.118;20.728;2023-09-08T15:20:40;100852.25;;;33.01
82774;BMP280;72508;45.118;20.728;2023-09-08T15:30:46;100845.44;;;32.88
82774;BMP280;72508;45.118;20.728;2023-09-08T15:41:13;100843.06;;;32.83
82774;BMP280;72508;45.118;20.728;2023-09-08T15:51:18;100831.78;;;32.58
82774;BMP280;72508;45.118;20.728;2023-09-08T16:01:19;100826.88;;;32.25
82774;BMP280;72508;45.118;20.728;2023-09-08T16:11:20;100827.97;;;32.01
82774;BMP280;72508;45.118;20.728;2023-09-08T16:21:20;100820.00;;;31.73
82774;BMP280;72508;45.118;20.728;2023-09-08T16:31:21;100822.34;;;31.39
82774;BMP280;72508;45.118;20.728;2023-09-08T16:41:23;100818.00;;;31.03
82774;BMP280;72508;45.118;20.728;2023-09-08T16:51:24;100822.94;;;30.85
82774;BMP280;72508;45.118;20.728;2023-09-08T17:01:25;100824.88;;;30.56
82774;BMP280;72508;45.118;20.728;2023-09-08T17:11:26;100830.50;;;30.36
82774;BMP280;72508;45.118;20.728;2023-09-08T17:21:28;100843.94;;;30.20
82774;BMP280;72508;45.118;20.728;2023-09-08T17:31:30;100857.72;;;29.90
82774;BMP280;72508;45.118;20.728;2023-09-08T17:41:31;100856.28;;;29.56
82774;BMP280;72508;45.118;20.728;2023-09-08T17:51:32;100866.22;;;29.19
82774;BMP280;72508;45.118;20.728;2023-09-08T18:01:33;100870.69;;;29.02
82774;BMP280;72508;45.118;20.728;2023-09-08T18:11:37;100869.47;;;28.79
82774;BMP280;72508;45.118;20.728;2023-09-08T18:21:38;100876.06;;;28.48
82774;BMP280;72508;45.118;20.728;2023-09-08T18:31:39;100875.34;;;28.31
82774;BMP280;72508;45.118;20.728;2023-09-08T18:41:41;100881.16;;;28.12
82774;BMP280;72508;45.118;20.728;2023-09-08T18:51:42;100877.50;;;27.87
82774;BMP280;72508;45.118;20.728;2023-09-08T19:01:43;100866.19;;;27.64
82774;BMP280;72508;45.118;20.728;2023-09-08T19:11:44;100869.56;;;27.43
82774;BMP280;72508;45.118;20.728;2023-09-08T19:21:44;100862.03;;;27.28
82774;BMP280;72508;45.118;20.728;2023-09-08T19:31:45;100860.31;;;27.15
82774;BMP280;72508;45.118;20.728;2023-09-08T19:41:46;100860.66;;;26.96
82774;BMP280;72508;45.118;20.728;2023-09-08T19:51:47;100855.72;;;26.72
82774;BMP280;72508;45.118;20.728;2023-09-08T20:01:48;100847.03;;;26.58
82774;BMP280;72508;45.118;20.728;2023-09-08T20:11:50;100856.50;;;26.46
82774;BMP280;72508;45.118;20.728;2023-09-08T20:21:51;100859.78;;;26.43
82774;BMP280;72508;45.118;20.728;2023-09-08T20:31:52;100856.78;;;26.36
82774;BMP280;72508;45.118;20.728;2023-09-08T20:41:58;100853.75;;;26.29
82774;BMP280;72508;45.118;20.728;2023-09-08T20:51:58;100861.97;;;26.24
82774;BMP280;72508;45.118;20.728;2023-09-08T21:01:59;100861.31;;;26.18
82774;BMP280;72508;45.118;20.728;2023-09-08T21:12:00;100856.88;;;26.14
82774;BMP280;72508;45.118;20.728;2023-09-08T21:22:01;100862.25;;;26.14
82774;BMP280;72508;45.118;20.728;2023-09-08T21:32:02;100882.28;;;26.08
82774;BMP280;72508;45.118;20.728;2023-09-08T21:42:03;100869.94;;;26.07
82774;BMP280;72508;45.118;20.728;2023-09-08T21:52:05;100868.88;;;26.08
82774;BMP280;72508;45.118;20.728;2023-09-08T22:02:06;100872.28;;;25.99
82774;BMP280;72508;45.118;20.728;2023-09-08T22:12:07;100856.94;;;25.91
82774;BMP280;72508;45.118;20.728;2023-09-08T22:22:09;100848.53;;;25.84
82774;BMP280;72508;45.118;20.728;2023-09-08T22:32:09;100843.31;;;25.70
82774;BMP280;72508;45.118;20.728;2023-09-08T22:42:10;100846.66;;;25.54
82774;BMP280;72508;45.118;20.728;2023-09-08T22:52:11;100839.97;;;25.42
82774;BMP280;72508;45.118;20.728;2023-09-08T23:02:12;100839.28;;;25.37
82774;BMP280;72508;45.118;20.728;2023-09-08T23:12:13;100831.44;;;25.18
82774;BMP280;72508;45.118;20.728;2023-09-08T23:22:15;100821.75;;;25.08
82774;BMP280;72508;45.118;20.728;2023-09-08T23:32:15;100823.00;;;24.88
82774;BMP280;72508;45.118;20.728;2023-09-08T23:42:16;100817.41;;;24.76
82774;BMP280;72508;45.118;20.728;2023-09-08T23:52:17;100813.25;;;24.70
